createdAt,value
2023-05-02T00:00:19.753Z,35.10
2023-05-02T00:05:21.522Z,33.08
2023-05-02T00:10:23.217Z,33.22
2023-05-02T00:15:24.737Z,30.08
2023-05-02T00:20:26.359Z,31.35
2023-05-02T00:25:27.878Z,28.52
2023-05-02T00:30:29.880Z,27.60
2023-05-02T00:35:33.549Z,28.55
2023-05-02T00:40:44.957Z,31.75
2023-05-02T00:45:46.852Z,31.38
2023-05-02T00:50:48.439Z,31.90
2023-05-02T00:55:50.168Z,30.67
2023-05-02T01:01:29.742Z,29.90
2023-05-02T01:07:08.356Z,29.63
2023-05-02T01:12:31.282Z,30.67
2023-05-02T01:17:34.499Z,32.60
2023-05-02T01:22:38.835Z,31.40
2023-05-02T01:28:10.409Z,29.05
2023-05-02T01:33:15.087Z,28.50
2023-05-02T01:38:19.293Z,28.23
2023-05-02T01:43:21.817Z,31.60
2023-05-02T01:48:25.633Z,30.73
2023-05-02T01:53:30.183Z,32.10
2023-05-02T01:58:35.593Z,30.98
2023-05-02T02:03:37.131Z,31.90
2023-05-02T02:08:38.824Z,31.67
2023-05-02T02:13:48.073Z,32.42
2023-05-02T02:18:50.562Z,32.60
2023-05-02T02:23:55.906Z,36.55
2023-05-02T02:28:57.604Z,35.63
2023-05-02T02:33:59.837Z,33.78
2023-05-02T02:39:16.776Z,33.55
2023-05-02T02:44:21.249Z,32.28
2023-05-02T02:49:46.806Z,31.45
2023-05-02T02:55:23.648Z,28.87
2023-05-02T03:00:27.687Z,29.90
2023-05-02T03:05:29.658Z,26.42
2023-05-02T03:10:31.301Z,26.63
2023-05-02T03:15:51.884Z,23.38
2023-05-02T03:20:57.837Z,20.77
2023-05-02T03:26:00.134Z,23.00
2023-05-02T03:31:01.770Z,23.10
2023-05-02T03:36:07.317Z,23.30
2023-05-02T03:41:09.408Z,24.90
2023-05-02T03:46:11.345Z,24.67
2023-05-02T03:51:17.115Z,26.70
2023-05-02T03:56:22.418Z,26.73
2023-05-02T04:01:34.742Z,26.77
2023-05-02T04:06:37.665Z,28.17
2023-05-02T04:11:42.066Z,26.08
2023-05-02T04:16:49.704Z,28.30
2023-05-02T04:21:55.603Z,26.25
2023-05-02T04:26:57.553Z,26.00
2023-05-02T04:32:00.108Z,28.95
2023-05-02T04:37:03.656Z,30.17
2023-05-02T04:42:07.531Z,27.30
2023-05-02T04:47:16.583Z,27.00
2023-05-02T04:52:20.064Z,27.88
2023-05-02T04:57:23.297Z,30.08
2023-05-02T05:02:29.678Z,27.48
2023-05-02T05:07:32.726Z,27.23
2023-05-02T05:12:34.333Z,28.27
2023-05-02T05:17:36.064Z,26.83
2023-05-02T05:22:42.147Z,28.63
2023-05-02T05:27:45.936Z,30.08
2023-05-02T05:32:47.915Z,29.42
2023-05-02T05:37:49.615Z,26.02
2023-05-02T05:42:52.622Z,27.05
2023-05-02T05:48:02.421Z,25.13
2023-05-02T05:53:08.243Z,25.10
2023-05-02T05:58:12.615Z,23.00
2023-05-02T06:03:15.771Z,23.33
2023-05-02T06:08:17.675Z,22.15
2023-05-02T06:13:19.318Z,22.13
2023-05-02T06:18:22.187Z,19.70
2023-05-02T06:23:23.736Z,17.77
2023-05-02T06:28:25.253Z,18.10
2023-05-02T06:33:27.938Z,18.92
2023-05-02T06:38:29.765Z,15.18
2023-05-02T06:43:31.386Z,14.43
2023-05-02T06:48:32.937Z,13.05
2023-05-02T06:53:34.478Z,13.55
2023-05-02T06:58:36.122Z,13.90
2023-05-02T07:03:37.661Z,14.10
2023-05-02T07:08:39.175Z,13.75
2023-05-02T07:13:40.728Z,14.60
2023-05-02T07:18:43.330Z,14.85
2023-05-02T07:23:44.859Z,13.82
2023-05-02T07:28:46.379Z,13.93
2023-05-02T07:33:47.904Z,14.15
2023-05-02T07:38:49.422Z,13.68
2023-05-02T07:43:50.957Z,13.73
2023-05-02T07:48:52.557Z,12.88
2023-05-02T07:53:54.239Z,14.60
2023-05-02T07:58:55.957Z,16.15
2023-05-02T08:03:57.607Z,18.55
2023-05-02T08:08:59.799Z,17.20
2023-05-02T08:14:01.567Z,14.48
2023-05-02T08:19:03.143Z,12.73
2023-05-02T08:24:04.798Z,11.88
2023-05-02T08:29:06.306Z,10.38
2023-05-02T08:34:07.861Z,10.98
2023-05-02T08:39:09.497Z,10.82
2023-05-02T08:44:12.044Z,12.55
2023-05-02T08:49:15.717Z,12.52
2023-05-02T08:54:18.901Z,9.30
2023-05-02T08:59:20.699Z,9.35
2023-05-02T09:04:24.529Z,10.43
2023-05-02T09:09:26.874Z,9.13
2023-05-02T09:14:28.448Z,7.22
2023-05-02T09:19:29.986Z,6.28
2023-05-02T09:24:31.535Z,6.43
2023-05-02T09:29:34.238Z,3.65
2023-05-02T09:34:35.872Z,3.28
2023-05-02T09:39:37.414Z,4.78
2023-05-02T09:44:38.930Z,5.18
2023-05-02T09:49:45.712Z,6.75
2023-05-02T09:54:47.950Z,6.30
2023-05-02T09:59:56.720Z,8.10
2023-05-02T10:05:00.458Z,8.90
2023-05-02T10:10:03.319Z,7.07
2023-05-02T10:15:07.985Z,8.35
2023-05-02T10:20:13.947Z,8.73
2023-05-02T10:25:15.696Z,7.63
2023-05-02T10:30:17.408Z,7.90
2023-05-02T10:35:19.742Z,8.13
2023-05-02T10:40:21.378Z,6.13
2023-05-02T10:45:36.663Z,6.55
2023-05-02T10:50:45.481Z,5.85
2023-05-02T10:56:10.018Z,5.90
2023-05-02T11:01:29.657Z,6.65
2023-05-02T11:06:36.414Z,5.70
2023-05-02T11:11:38.849Z,4.90
2023-05-02T11:16:59.134Z,5.43
2023-05-02T11:22:19.274Z,5.35
2023-05-02T11:27:29.918Z,5.22
2023-05-02T11:32:54.613Z,5.47
2023-05-02T11:38:00.148Z,5.50
2023-05-02T11:43:13.105Z,5.03
2023-05-02T11:48:18.022Z,5.78
2023-05-02T11:53:21.914Z,5.15
2023-05-02T11:58:26.043Z,5.03
2023-05-02T12:03:33.206Z,6.30
2023-05-02T12:08:34.936Z,5.65
2023-05-02T12:13:45.525Z,6.78
2023-05-02T12:18:48.079Z,7.10
2023-05-02T12:23:49.841Z,7.13
2023-05-02T12:28:52.509Z,6.93
2023-05-02T12:33:54.140Z,6.50
2023-05-02T12:38:57.411Z,5.93
2023-05-02T12:43:59.014Z,5.10
2023-05-02T12:49:07.868Z,4.28
2023-05-02T12:54:20.664Z,4.57
2023-05-02T12:59:29.999Z,3.95
2023-05-02T13:04:38.981Z,4.60
2023-05-02T13:09:40.649Z,3.90
2023-05-02T13:14:42.325Z,4.03
2023-05-02T13:19:50.579Z,3.33
2023-05-02T13:24:55.741Z,4.40
2023-05-02T13:29:57.325Z,3.97
2023-05-02T13:34:58.855Z,4.40
2023-05-02T13:40:00.814Z,4.40
2023-05-02T13:45:02.621Z,5.22
2023-05-02T13:50:04.753Z,3.50
2023-05-02T13:55:06.825Z,4.13
2023-05-02T14:00:09.133Z,4.68
2023-05-02T14:05:10.621Z,4.13
2023-05-02T14:10:12.327Z,5.22
2023-05-02T14:15:14.066Z,3.70
2023-05-02T14:20:15.643Z,3.67
2023-05-02T14:25:17.198Z,3.67
2023-05-02T14:30:18.830Z,4.40
2023-05-02T14:35:20.523Z,3.70
2023-05-02T14:40:22.073Z,4.05
2023-05-02T14:45:23.624Z,4.57
2023-05-02T14:50:25.343Z,4.65
2023-05-02T14:55:26.956Z,4.63
2023-05-02T15:00:28.571Z,4.50
2023-05-02T15:05:31.456Z,5.00
2023-05-02T15:10:37.133Z,5.07
2023-05-02T15:15:38.759Z,4.87
2023-05-02T15:20:40.272Z,4.90
2023-05-02T15:25:41.810Z,3.78
2023-05-02T15:30:43.362Z,3.78
2023-05-02T15:35:56.302Z,4.60
2023-05-02T15:40:59.556Z,4.35
2023-05-02T15:46:01.651Z,3.25
2023-05-02T15:51:03.913Z,3.58
2023-05-02T15:56:09.165Z,3.20
2023-05-02T16:01:10.845Z,3.35
2023-05-02T16:06:12.598Z,3.75
2023-05-02T16:11:14.136Z,3.65
2023-05-02T16:16:17.883Z,3.47
2023-05-02T16:21:19.529Z,3.90
2023-05-02T16:26:21.116Z,3.53
2023-05-02T16:31:22.744Z,3.78
2023-05-02T16:36:24.681Z,3.90
2023-05-02T16:41:26.347Z,3.72
2023-05-02T16:46:28.003Z,3.83
2023-05-02T16:51:29.609Z,3.47
2023-05-02T16:56:31.135Z,3.55
2023-05-02T17:01:34.965Z,4.03
2023-05-02T17:06:36.539Z,6.05
2023-05-02T17:11:38.104Z,3.95
2023-05-02T17:16:40.347Z,3.65
2023-05-02T17:21:41.937Z,4.60
2023-05-02T17:26:43.555Z,4.03
2023-05-02T17:31:45.271Z,3.45
2023-05-02T17:36:46.831Z,3.72
2023-05-02T17:41:48.445Z,4.00
2023-05-02T17:46:50.002Z,3.97
2023-05-02T17:51:51.568Z,3.90
2023-05-02T17:56:53.316Z,3.80
2023-05-02T18:01:54.902Z,3.85
2023-05-02T18:06:56.671Z,3.80
2023-05-02T18:11:58.290Z,3.80
2023-05-02T18:16:59.847Z,3.60
2023-05-02T18:22:01.469Z,4.57
2023-05-02T18:27:03.179Z,8.48
2023-05-02T18:32:04.869Z,5.25
2023-05-02T18:37:06.558Z,4.15
2023-05-02T18:42:08.169Z,4.53
2023-05-02T18:47:09.748Z,4.00
2023-05-02T18:52:11.440Z,4.97
2023-05-02T18:57:12.999Z,3.75
2023-05-02T19:02:15.205Z,3.72
2023-05-02T19:07:16.779Z,4.82
2023-05-02T19:12:18.298Z,7.07
2023-05-02T19:17:19.839Z,4.25
2023-05-02T19:22:21.431Z,3.95
2023-05-02T19:27:22.988Z,3.50
2023-05-02T19:32:24.631Z,3.55
2023-05-02T19:37:26.321Z,4.10
2023-05-02T19:42:27.883Z,4.50
2023-05-02T19:47:29.525Z,5.18
2023-05-02T19:52:31.123Z,4.22
2023-05-02T19:57:32.677Z,4.05
2023-05-02T20:02:34.308Z,3.63
2023-05-02T20:07:35.988Z,4.43
2023-05-02T20:12:37.709Z,3.92
2023-05-02T20:17:39.296Z,4.45
2023-05-02T20:22:40.833Z,4.65
2023-05-02T20:27:42.731Z,5.75
2023-05-02T20:32:44.468Z,5.53
2023-05-02T20:37:46.178Z,4.70
2023-05-02T20:42:47.994Z,5.00
2023-05-02T20:47:50.037Z,5.18
2023-05-02T20:52:51.666Z,5.82
2023-05-02T20:57:53.790Z,5.10
2023-05-02T21:02:55.511Z,5.78
2023-05-02T21:07:57.097Z,4.95
2023-05-02T21:12:58.680Z,5.57
2023-05-02T21:18:01.590Z,4.72
2023-05-02T21:23:03.241Z,5.50
2023-05-02T21:28:05.331Z,5.43
2023-05-02T21:33:06.871Z,5.13
2023-05-02T21:38:08.467Z,5.40
2023-05-02T21:43:10.028Z,5.40
2023-05-02T21:48:13.149Z,5.13
2023-05-02T21:53:14.766Z,5.03
2023-05-02T21:58:16.341Z,6.88
2023-05-02T22:03:18.010Z,6.47
2023-05-02T22:08:19.534Z,6.47
2023-05-02T22:13:21.108Z,7.25
2023-05-02T22:18:22.668Z,5.82
2023-05-02T22:23:24.222Z,6.50
2023-05-02T22:28:25.806Z,6.80
2023-05-02T22:33:27.416Z,6.85
2023-05-02T22:38:28.994Z,6.70
2023-05-02T22:43:30.719Z,8.05
2023-05-02T22:48:32.298Z,6.95
2023-05-02T22:53:33.866Z,7.50
2023-05-02T22:58:35.477Z,7.43
2023-05-02T23:03:37.172Z,7.88
2023-05-02T23:08:38.763Z,6.75
2023-05-02T23:13:40.293Z,5.97
2023-05-02T23:18:41.829Z,6.63
2023-05-02T23:23:43.593Z,6.70
2023-05-02T23:28:45.134Z,6.57
2023-05-02T23:33:46.764Z,5.95
2023-05-02T23:38:48.397Z,7.22
2023-05-02T23:43:49.940Z,6.90
2023-05-02T23:48:51.521Z,7.68
2023-05-02T23:53:53.146Z,7.60
2023-05-02T23:58:55.238Z,7.40
